^^
Datos históricos de la estación: Murcia-Puente Tocinos
Diario Informe para Marzo 23, 2019 Unidades:  Ingés    Métrico   Ambas
Diario Semanal Mensual Anual
  Máxima: Mínima: Promedio:
Temperatura: 84.6 °F 69.6 °F 76.5 °F
Punto de rocio: 64.6 °F 53.2 °F 57 °F
Humedad: 77.1% 38% 52%
Velocidad viento: 8.5mph 0mph 4.7mph
Racha viento: 15mph - -
Viento- - SSO
Presión: 30.1 in 29.9 in -
Precipitación: 0 in    
 
 
Tabla de datos para Marzo 23, 2019
Hora Temperatura Punto de rocio Presión Viento Velocidad viento Racha viento Humedad Intensidad lluvia(por hora) Nubes
00:04 79 °F 58.3 °F 29.9 in NNO 3.6 mph 10.7 mph 49.3% 0 in
00:09 79 °F 58.3 °F 29.9 in NO 3.9 mph 11 mph 49.2% 0 in
00:14 79 °F 58.3 °F 29.9 in NNE 5.2 mph 10 mph 49% 0 in
00:19 79 °F 58.3 °F 30 in NO 5 mph 6.9 mph 49% 0 in
00:24 79 °F 58.3 °F 30 in ONO 4 mph 8.5 mph 49.2% 0 in
00:29 78.8 °F 58.6 °F 30 in ONO 3.8 mph 9 mph 49.9% 0 in
00:34 78.8 °F 58.5 °F 30 in ONO 3.1 mph 6.2 mph 50% 0 in
00:39 78.6 °F 58.3 °F 30 in NO 3.3 mph 8.5 mph 49.9% 0 in
00:44 78.4 °F 58.3 °F 30 in ONO 4 mph 9 mph 50% 0 in
00:49 78.4 °F 58.6 °F 30 in ONO 3.9 mph 7 mph 50.7% 0 in
00:54 78.3 °F 58.5 °F 30 in Oeste 3.6 mph 10.7 mph 50.8% 0 in
00:59 78.1 °F 58.5 °F 30 in Oeste 3.6 mph 11 mph 51% 0 in
01:04 78.1 °F 58.5 °F 30 in Oeste 3.6 mph 8.5 mph 51% 0 in
01:09 77.9 °F 58.3 °F 30 in OSO 3.5 mph 9 mph 51% 0 in
01:14 77.9 °F 58.3 °F 30 in Oeste 3.1 mph 9 mph 51% 0 in
01:19 77.7 °F 58.1 °F 30 in OSO 3.2 mph 8 mph 51% 0 in
01:24 77.7 °F 58.1 °F 30 in SSO 3.6 mph 6 mph 51.1% 0 in
01:29 77.7 °F 58.6 °F 30 in SSO 3.3 mph 6.9 mph 51.8% 0 in
01:34 77.5 °F 58.5 °F 30 in ONO 2 mph 7.4 mph 51.7% 0 in
01:39 77.5 °F 58.5 °F 30 in Oeste 2.2 mph 7 mph 51.9% 0 in
01:44 77.5 °F 58.5 °F 30 in OSO 3.1 mph 12.7 mph 51.9% 0 in
01:49 77.4 °F 58.5 °F 30 in Oeste 3.5 mph 13 mph 52% 0 in
01:54 77.2 °F 58.8 °F 30 in Oeste 5.4 mph 11 mph 53% 0 in
01:59 77 °F 58.5 °F 30 in Oeste 5.2 mph 12.7 mph 53% 0 in
02:04 76.8 °F 58.5 °F 30 in Oeste 4.7 mph 13 mph 53.1% 0 in
02:09 76.6 °F 58.6 °F 30 in OSO 4.8 mph 10 mph 53.9% 0 in
02:14 76.5 °F 58.5 °F 30 in Oeste 5.2 mph 9.7 mph 53.6% 0 in
02:19 76.5 °F 58.1 °F 30 in Oeste 5.2 mph 10.4 mph 53% 0 in
02:24 76.3 °F 57.9 °F 30 in OSO 5.4 mph 10 mph 53% 0 in
02:29 76.3 °F 57.7 °F 30 in OSO 5.1 mph 9 mph 52.8% 0 in
02:34 76.3 °F 57.7 °F 30 in OSO 4 mph 7.4 mph 52.6% 0 in
02:39 76.1 °F 57.2 °F 30 in OSO 4 mph 8.7 mph 51.8% 0 in
02:44 76.1 °F 56.7 °F 30 in OSO 4 mph 10 mph 50.9% 0 in
02:49 75.9 °F 56.5 °F 30 in OSO 4 mph 10 mph 50.9% 0 in
02:54 75.9 °F 56.3 °F 30 in OSO 4 mph 7.4 mph 50.6% 0 in
02:59 75.7 °F 55.9 °F 30 in OSO 4 mph 7 mph 50% 0 in
03:04 75.7 °F 55.8 °F 30 in OSO 4 mph 7 mph 50% 0 in
03:09 75.7 °F 55.6 °F 30 in OSO 3.9 mph 12.3 mph 49.8% 0 in
03:14 75.6 °F 55.2 °F 30 in Oeste 3.6 mph 13 mph 49.2% 0 in
03:19 75.6 °F 55 °F 30 in SO 4 mph 10.4 mph 49% 0 in
03:24 75.4 °F 55 °F 30 in Oeste 5.4 mph 8.1 mph 49.3% 0 in
03:29 75.4 °F 55.2 °F 30 in Oeste 4.9 mph 8 mph 49.6% 0 in
03:34 75.2 °F 54.9 °F 30 in SO 2.9 mph 6 mph 49.1% 0 in
03:39 75 °F 55 °F 30 in Oeste 2.8 mph 5 mph 49.9% 0 in
03:44 75 °F 54.7 °F 30 in Oeste 2.4 mph 4 mph 49.2% 0 in
03:49 74.8 °F 54.5 °F 30 in Oeste 2.3 mph 4.7 mph 49% 0 in
03:54 74.8 °F 54.3 °F 30 in Oeste 2 mph 5.2 mph 49% 0 in
03:59 74.7 °F 54.3 °F 30 in OSO 1.9 mph 5 mph 49.2% 0 in
04:04 74.7 °F 54 °F 30 in OSO 1.8 mph 4.6 mph 48.7% 0 in
04:09 74.5 °F 54.1 °F 30 in Oeste 1.9 mph 5 mph 49% 0 in
04:14 74.5 °F 53.8 °F 30 in OSO 2 mph 5.8 mph 48.5% 0 in
04:19 74.5 °F 54 °F 30 in SO 2.2 mph 6 mph 48.8% 0 in
04:24 74.5 °F 54 °F 30 in SO 3.1 mph 6.9 mph 49% 0 in
04:29 74.3 °F 53.8 °F 30 in SO 3.3 mph 9.2 mph 49% 0 in
04:34 74.1 °F 53.8 °F 30 in SO 4 mph 9.2 mph 49% 0 in
04:39 73.9 °F 53.8 °F 30 in OSO 4.2 mph 9 mph 49.1% 0 in
04:44 73.9 °F 53.8 °F 30 in SO 4.7 mph 7 mph 49.4% 0 in
04:49 73.8 °F 53.8 °F 30 in SO 4.5 mph 7 mph 49.6% 0 in
04:54 73.6 °F 53.8 °F 30 in SO 4 mph 7 mph 50% 0 in
04:59 73.6 °F 53.8 °F 30 in SO 4.2 mph 9.2 mph 50% 0 in
05:04 73.2 °F 53.6 °F 30 in SO 4.7 mph 9 mph 50% 0 in
05:09 73.2 °F 53.4 °F 30 in SO 4.9 mph 8.7 mph 50% 0 in
05:14 73.2 °F 53.4 °F 30 in SO 5.9 mph 10.7 mph 50% 0 in
05:19 73.2 °F 53.6 °F 30 in SO 6 mph 11 mph 50.4% 0 in
05:24 73 °F 53.8 °F 30 in SO 6.2 mph 10.7 mph 51% 0 in
05:29 73 °F 53.8 °F 30 in SO 6.2 mph 11.5 mph 51% 0 in
05:34 72.9 °F 53.8 °F 30 in SO 6.4 mph 12 mph 51% 0 in
05:39 72.9 °F 53.8 °F 30 in SO 6.3 mph 12 mph 51% 0 in
05:44 72.7 °F 53.6 °F 30 in SO 5.9 mph 11.4 mph 51% 0 in
05:49 72.7 °F 53.4 °F 30 in SO 6 mph 11 mph 51% 0 in
05:54 72.7 °F 53.4 °F 30 in SO 6.4 mph 10 mph 51% 0 in
05:59 72.7 °F 53.4 °F 30 in SO 6.3 mph 11.2 mph 51% 0 in
06:04 72.5 °F 53.4 °F 30 in SO 6.2 mph 12 mph 51% 0 in
06:09 72.5 °F 53.2 °F 30 in OSO 6.2 mph 11.5 mph 51% 0 in
06:14 72.3 °F 53.4 °F 30 in SO 6.4 mph 12 mph 51.5% 0 in
06:19 72.3 °F 53.6 °F 30 in SO 6.4 mph 12 mph 52% 0 in
06:24 72.1 °F 54 °F 30 in SO 6.2 mph 10.7 mph 52.9% 0 in
06:29 72 °F 54.1 °F 30 in SO 6.2 mph 11 mph 53.3% 0 in
06:34 72 °F 54.5 °F 30 in SO 5.9 mph 10.4 mph 54.5% 0 in
06:39 71.8 °F 55 °F 30 in SO 5.9 mph 10.4 mph 55.8% 0 in
06:44 71.4 °F 55.4 °F 30 in SO 5.9 mph 11.8 mph 57.1% 0 in
06:49 71.1 °F 55.6 °F 30 in SSO 5.9 mph 12 mph 58.1% 0 in
06:54 70.9 °F 55.8 °F 30 in SSO 5.9 mph 11.5 mph 59% 0 in
06:59 70.5 °F 55.9 °F 30 in SSO 6 mph 12 mph 59.8% 0 in
07:04 70.3 °F 55.9 °F 30 in SSO 6.2 mph 10 mph 60% 0 in
07:09 70.3 °F 55.8 °F 30 in SSO 6.2 mph 11.5 mph 60% 0 in
07:14 70.3 °F 55.6 °F 30 in SSO 6.2 mph 12 mph 59.4% 0 in
07:19 70.3 °F 55.2 °F 30 in SSO 6.2 mph 12 mph 59% 0 in
07:24 70.3 °F 55.2 °F 30 in SSO 6.4 mph 12.7 mph 59% 0 in
07:29 70.3 °F 55.2 °F 30 in SSO 6.6 mph 13.5 mph 59% 0 in
07:34 70.2 °F 55 °F 30 in SSO 7.6 mph 15 mph 58.6% 0 in
07:39 70.3 °F 54.9 °F 30 in SSO 7.8 mph 15 mph 58% 0 in
07:44 70.3 °F 54.9 °F 30 in SO 8.5 mph 13.8 mph 58% 0 in
07:49 70.2 °F 55 °F 30 in SO 8.4 mph 14 mph 58.8% 0 in
07:54 70 °F 55 °F 30 in SO 8.1 mph 13 mph 59% 0 in
07:59 69.8 °F 54.9 °F 30 in SSO 8.1 mph 13.8 mph 59% 0 in
08:04 69.6 °F 54.7 °F 30 in SSO 8.1 mph 14 mph 59.1% 0 in
08:09 69.6 °F 55 °F 30 in SSO 7.8 mph 13 mph 59.9% 0 in
08:14 69.6 °F 55 °F 30 in SSO 6.9 mph 10.4 mph 59.9% 0 in
08:19 69.6 °F 55 °F 30.1 in SSO 6.8 mph 10.4 mph 59.7% 0 in
08:24 69.6 °F 54.7 °F 30.1 in SSO 6.2 mph 11.5 mph 59% 0 in
08:29 69.6 °F 54.7 °F 30.1 in SO 6.2 mph 12 mph 59% 0 in
08:34 69.8 °F 54.9 °F 30.1 in SSO 6.2 mph 12 mph 59% 0 in
08:39 69.8 °F 54.9 °F 30.1 in SO 6.3 mph 12 mph 59% 0 in
08:44 69.8 °F 54.9 °F 30.1 in SO 6.9 mph 11 mph 59% 0 in
08:49 69.8 °F 54.9 °F 30.1 in SO 6.8 mph 10.4 mph 59% 0 in
08:54 69.8 °F 54.9 °F 30.1 in SO 6.2 mph 11.5 mph 59% 0 in
08:59 70 °F 54.5 °F 30.1 in SSO 6.3 mph 12.7 mph 58.1% 0 in
09:04 70.2 °F 54.7 °F 30.1 in SO 6.9 mph 13 mph 58.1% 0 in
09:09 70.2 °F 54.7 °F 30.1 in SSO 6.8 mph 12 mph 58% 0 in
09:14 70.2 °F 54.7 °F 30.1 in SSO 6.4 mph 9.7 mph 58% 0 in
09:19 70.2 °F 54.9 °F 30.1 in SO 6.3 mph 11.5 mph 58.1% 0 in
09:24 70.3 °F 54.9 °F 30.1 in SSO 6.2 mph 12 mph 58% 0 in
09:29 70.3 °F 54.9 °F 30.1 in SSO 6.2 mph 12 mph 58% 0 in
09:34 70.5 °F 54.9 °F 30.1 in SSO 5.9 mph 12 mph 57.4% 0 in
09:39 70.9 °F 54.9 °F 30.1 in SSO 6 mph 10.4 mph 57% 0 in
09:44 71.1 °F 55 °F 30.1 in SO 6.2 mph 10 mph 57% 0 in
09:49 71.2 °F 55 °F 30.1 in SSO 6.2 mph 10.7 mph 56.5% 0 in
09:54 71.4 °F 55 °F 30.1 in SO 6.2 mph 11 mph 56.4% 0 in
09:59 71.8 °F 55.2 °F 30.1 in SO 6 mph 11 mph 56% 0 in
10:04 72.1 °F 55.2 °F 30.1 in SO 5.4 mph 9.2 mph 55.4% 0 in
10:09 72.3 °F 55 °F 30.1 in SO 5.5 mph 12.5 mph 54.5% 0 in
10:14 72.7 °F 55 °F 30.1 in SO 5.9 mph 13 mph 54% 0 in
10:19 72.9 °F 55.2 °F 30.1 in SO 5.8 mph 11.8 mph 54% 0 in
10:24 72.9 °F 55.2 °F 30.1 in SO 5.4 mph 12 mph 54% 0 in
10:29 73 °F 55.2 °F 30.1 in SO 5.4 mph 10.7 mph 53.9% 0 in
10:34 73.2 °F 55.2 °F 30.1 in OSO 5.4 mph 11 mph 53.3% 0 in
10:39 73.4 °F 55.2 °F 30.1 in OSO 5.5 mph 11 mph 53% 0 in
10:44 73.8 °F 55 °F 30.1 in OSO 5.9 mph 10 mph 52% 0 in
10:49 73.9 °F 55.4 °F 30.1 in SO 5.6 mph 9 mph 52.6% 0 in
10:54 73.9 °F 55 °F 30.1 in OSO 4.3 mph 12.7 mph 51.7% 0 in
10:59 73.9 °F 54.7 °F 30.1 in OSO 4.7 mph 13 mph 51.1% 0 in
11:04 73.9 °F 54.7 °F 30.1 in OSO 6.2 mph 11 mph 51% 0 in
11:09 74.3 °F 54.9 °F 30.1 in OSO 6.2 mph 10.4 mph 51% 0 in
11:14 74.5 °F 54.9 °F 30.1 in OSO 5.9 mph 10.4 mph 50.4% 0 in
11:19 74.7 °F 54.9 °F 30.1 in OSO 5.8 mph 10.4 mph 50% 0 in
11:24 74.8 °F 55 °F 30.1 in OSO 5.2 mph 10 mph 50% 0 in
11:29 75.4 °F 55.2 °F 30.1 in SO 5 mph 9.2 mph 49.9% 0 in
11:34 75.6 °F 55 °F 30.1 in Oeste 4 mph 10.4 mph 49% 0 in
11:39 75.6 °F 54.9 °F 30.1 in SO 4.2 mph 10 mph 48.6% 0 in
11:44 75.7 °F 55.2 °F 30.1 in SO 4.7 mph 12.7 mph 48.8% 0 in
11:49 76.1 °F 55 °F 30.1 in Oeste 4.8 mph 13 mph 48% 0 in
11:54 76.5 °F 54.9 °F 30.1 in OSO 5.2 mph 11.5 mph 47.3% 0 in
11:59 76.8 °F 54.7 °F 30.1 in Oeste 5.2 mph 12 mph 46.3% 0 in
12:04 77.2 °F 54.3 °F 30.1 in Oeste 5.4 mph 11 mph 45.2% 0 in
12:09 77.2 °F 54.1 °F 30.1 in Oeste 5.4 mph 10.4 mph 44.9% 0 in
12:14 77.2 °F 54.1 °F 30.1 in Oeste 5.4 mph 11.5 mph 44.8% 0 in
12:19 77.4 °F 54.1 °F 30.1 in Oeste 5.6 mph 12 mph 44.7% 0 in
12:24 77.4 °F 54.7 °F 30.1 in OSO 6.4 mph 12 mph 45.4% 0 in
12:29 77.7 °F 54.1 °F 30.1 in Oeste 6.4 mph 12 mph 44.2% 0 in
12:34 77.9 °F 54 °F 30.1 in ONO 6.4 mph 12 mph 43.8% 0 in
12:39 78.1 °F 54.3 °F 30.1 in Oeste 6.3 mph 10 mph 43.9% 0 in
12:44 78.4 °F 54.3 °F 30.1 in OSO 5.9 mph 12.7 mph 43.3% 0 in
12:49 78.8 °F 54.1 °F 30.1 in OSO 6 mph 13 mph 42.7% 0 in
12:54 78.6 °F 54 °F 30.1 in OSO 6.2 mph 13 mph 42.4% 0 in
12:59 79 °F 54.5 °F 30.1 in OSO 6.3 mph 12 mph 42.9% 0 in
13:04 79.5 °F 54.3 °F 30.1 in OSO 6.4 mph 13.8 mph 41.8% 0 in
13:09 79.9 °F 54.1 °F 30.1 in ONO 6.3 mph 14 mph 41% 0 in
13:14 80.1 °F 54.1 °F 30.1 in Oeste 5.9 mph 11 mph 40.8% 0 in
13:19 80.2 °F 54.3 °F 30.1 in Oeste 5.5 mph 9.2 mph 40.8% 0 in
13:24 80.4 °F 54.1 °F 30.1 in SO 4 mph 11.4 mph 40.3% 0 in
13:29 80.8 °F 54.1 °F 30.1 in Oeste 4.3 mph 12 mph 40% 0 in
13:34 80.8 °F 54.1 °F 30.1 in Oeste 5.2 mph 12 mph 39.8% 0 in
13:39 80.8 °F 54 °F 30.1 in OSO 5.4 mph 10.4 mph 39.5% 0 in
13:44 80.8 °F 53.8 °F 30.1 in OSO 6.2 mph 10 mph 39.3% 0 in
13:49 80.8 °F 53.6 °F 30.1 in Sur 6 mph 11.5 mph 39.2% 0 in
13:54 81 °F 54.1 °F 30 in OSO 5.4 mph 12 mph 39.6% 0 in
13:59 81.3 °F 54 °F 30 in Oeste 5.3 mph 12 mph 39% 0 in
14:04 81.7 °F 54.1 °F 30 in SO 5.2 mph 9 mph 38.9% 0 in
14:09 81.7 °F 54.1 °F 30 in Oeste 5.1 mph 8.5 mph 38.9% 0 in
14:14 81.7 °F 54.3 °F 30 in NO 4.7 mph 10.4 mph 38.9% 0 in
14:19 81.7 °F 54.3 °F 30 in NO 4.6 mph 10 mph 39% 0 in
14:24 81.7 °F 54.7 °F 30 in SSO 4.3 mph 10.4 mph 39.5% 0 in
14:29 81.7 °F 55 °F 30 in Sur 4.5 mph 10 mph 40% 0 in
14:34 81.9 °F 54.9 °F 30 in SO 5.2 mph 10.4 mph 39.4% 0 in
14:39 82 °F 54.5 °F 30 in OSO 5 mph 10 mph 38.9% 0 in
14:44 82 °F 54.7 °F 30 in NO 4.3 mph 7 mph 39% 0 in
14:49 82 °F 54.7 °F 30 in ONO 4.3 mph 8.1 mph 39% 0 in
14:54 82 °F 54.1 °F 30 in SO 4.3 mph 9.2 mph 38.4% 0 in
14:59 82 °F 54 °F 30 in NO 4.2 mph 9 mph 38.1% 0 in
15:04 82.2 °F 54.9 °F 30 in NNO 4 mph 8.7 mph 38.9% 0 in
15:09 82.8 °F 55 °F 30 in SO 3.9 mph 9.2 mph 38.7% 0 in
15:14 82.8 °F 55.2 °F 30 in SSO 3.6 mph 9 mph 39% 0 in
15:19 82.9 °F 54.9 °F 30 in Oeste 3.4 mph 5 mph 38.3% 0 in
15:24 82.9 °F 55 °F 30 in North 2.4 mph 5.9 mph 38.3% 0 in
15:29 83.1 °F 55.2 °F 30 in NNO 2.4 mph 6 mph 38.3% 0 in
15:34 83.7 °F 55.8 °F 30 in NNO 2.4 mph 8.5 mph 38.5% 0 in
15:39 83.7 °F 55.6 °F 30 in ESE 2.7 mph 9.2 mph 38.1% 0 in
15:44 83.1 °F 55 °F 30 in Sur 4 mph 9.2 mph 38.3% 0 in
15:49 82.9 °F 55.4 °F 30 in SO 4.2 mph 8 mph 38.9% 0 in
15:54 83.1 °F 55.6 °F 30 in OSO 5.2 mph 8.1 mph 39% 0 in
15:59 83.5 °F 55.9 °F 30 in ONO 4.7 mph 8 mph 39% 0 in
16:04 84 °F 55.6 °F 30 in NO 3.1 mph 5 mph 38% 0 in
16:09 84.2 °F 55.8 °F 30 in OSO 3.1 mph 6.9 mph 38% 0 in
16:14 84.4 °F 55.9 °F 30 in SO 3.1 mph 7 mph 38% 0 in
16:19 84.2 °F 56.1 °F 30 in Oeste 3.3 mph 7 mph 38.4% 0 in
16:24 84.6 °F 56.3 °F 30 in SO 4.3 mph 7.4 mph 38.2% 0 in
16:29 84.4 °F 56.1 °F 30 in Oeste 4.3 mph 8.5 mph 38% 0 in
16:34 84.2 °F 56.5 °F 30 in SSO 4.3 mph 9 mph 38.8% 0 in
16:39 84.4 °F 56.1 °F 30 in ESE 4 mph 6.9 mph 38.3% 0 in
16:44 84 °F 56.5 °F 30 in ESE 3.1 mph 7 mph 39% 0 in
16:49 84.2 °F 56.5 °F 30 in ESE 3 mph 5 mph 39% 0 in
16:54 84.2 °F 56.5 °F 30 in NNE 2.9 mph 4.7 mph 39% 0 in
16:59 84.4 °F 56.7 °F 30 in North 2.8 mph 5 mph 39% 0 in
17:04 84.4 °F 56.7 °F 30 in ESE 2.4 mph 5.2 mph 39% 0 in
17:09 84.4 °F 56.7 °F 30 in ENE 2.4 mph 5.4 mph 39% 0 in
17:14 84.4 °F 56.7 °F 30 in SE 2.4 mph 6.2 mph 39% 0 in
17:19 84.4 °F 57.2 °F 30 in Este 2.6 mph 9.7 mph 39.7% 0 in
17:24 84.2 °F 56.8 °F 30 in ESE 3.6 mph 10 mph 39.5% 0 in
17:29 83.8 °F 56.8 °F 30 in Este 3.9 mph 9 mph 39.7% 0 in
17:34 83.8 °F 57 °F 30 in NE 5.2 mph 7 mph 40% 0 in
17:39 84 °F 57 °F 30 in NE 4.7 mph 5.8 mph 40% 0 in
17:44 84 °F 57.2 °F 30 in ESE 2.4 mph 11.2 mph 40.1% 0 in
17:49 83.7 °F 57.7 °F 30 in ESE 3.2 mph 13.8 mph 41.4% 0 in
17:54 83.1 °F 57.6 °F 30 in SE 6.4 mph 14 mph 42.1% 0 in
17:59 82.8 °F 57.9 °F 30 in ESE 6.6 mph 14 mph 42.8% 0 in
18:04 82.8 °F 58.1 °F 30 in ESE 7.4 mph 14 mph 43.3% 0 in
18:09 82.4 °F 58.6 °F 30 in ESE 7.4 mph 12 mph 44.7% 0 in
18:14 82 °F 59.4 °F 30 in SE 7.4 mph 14 mph 46% 0 in
18:19 81.9 °F 59.9 °F 30 in SE 7.4 mph 14 mph 47.4% 0 in
18:24 81.9 °F 60.3 °F 30 in SE 7.4 mph 12 mph 47.9% 0 in
18:29 81.9 °F 59.9 °F 30 in SE 7 mph 10.4 mph 47.3% 0 in
18:34 81.9 °F 59.4 °F 30 in SE 5.4 mph 10.7 mph 46.7% 0 in
18:39 81.5 °F 58.8 °F 30 in SE 5.6 mph 13.5 mph 46% 0 in
18:44 81.3 °F 58.5 °F 30 in SE 6.4 mph 14 mph 45.7% 0 in
18:49 81.1 °F 58.3 °F 30 in SE 6.5 mph 12 mph 45.7% 0 in
18:54 81.1 °F 58.1 °F 30 in SE 6.9 mph 12 mph 45.7% 0 in
18:59 81 °F 58.1 °F 30 in SE 6.8 mph 11.8 mph 46% 0 in
19:04 80.8 °F 58.5 °F 30 in SE 6.4 mph 13.5 mph 46.7% 0 in
19:09 80.4 °F 58.3 °F 30 in SE 6.6 mph 14 mph 47.1% 0 in
19:14 80.2 °F 58.8 °F 30 in SE 7.4 mph 14 mph 48% 0 in
19:19 80.1 °F 59 °F 30 in SE 7.4 mph 13 mph 48.9% 0 in
19:24 79.9 °F 59.5 °F 30 in SE 7.4 mph 13 mph 50% 0 in
19:29 79.5 °F 59.2 °F 30 in SE 7.1 mph 13.8 mph 50% 0 in
19:34 79.3 °F 59.5 °F 30 in SE 6.4 mph 14 mph 50.8% 0 in
19:39 79.2 °F 59.7 °F 30 in SSE 6.3 mph 12 mph 51.4% 0 in
19:44 79.2 °F 59.9 °F 30 in SSE 5.9 mph 11.8 mph 52% 0 in
19:49 79 °F 60.1 °F 30 in SE 5.7 mph 12 mph 52.5% 0 in
19:54 79 °F 60.3 °F 30 in SE 4.7 mph 7 mph 52.7% 0 in
19:59 78.8 °F 60.3 °F 30 in NE 4.3 mph 6 mph 53% 0 in
20:04 78.6 °F 60.1 °F 30 in ENE 2.9 mph 5 mph 53% 0 in
20:09 78.4 °F 60.4 °F 30 in ENE 2.7 mph 5 mph 54% 0 in
20:14 78.3 °F 60.3 °F 30 in ENE 2 mph 5 mph 54% 0 in
20:19 78.1 °F 60.6 °F 30 in ENE 1.9 mph 3.6 mph 54.9% 0 in
20:24 77.9 °F 60.6 °F 30 in ENE 1.4 mph 5.4 mph 55.4% 0 in
20:29 77.5 °F 61 °F 30 in NE 1.8 mph 6.2 mph 56.5% 0 in
20:34 77.4 °F 61.2 °F 30 in NE 3.1 mph 7.4 mph 57.5% 0 in
20:39 77 °F 61 °F 30 in NE 3.3 mph 7 mph 58% 0 in
20:44 76.8 °F 61 °F 30 in NE 4 mph 6 mph 58.1% 0 in
20:49 76.6 °F 61.2 °F 30 in NE 3.9 mph 6 mph 58.8% 0 in
20:54 76.6 °F 61.2 °F 30 in NE 3.6 mph 6.9 mph 59.1% 0 in
20:59 76.5 °F 61.5 °F 30 in NE 3.6 mph 7 mph 60% 0 in
21:04 76.3 °F 61.3 °F 30 in NE 3.6 mph 6 mph 60% 0 in
21:09 76.3 °F 61.5 °F 30 in NE 3.4 mph 5.9 mph 60.3% 0 in
21:14 75.9 °F 61.5 °F 30 in NE 2.9 mph 9.2 mph 61.1% 0 in
21:19 75.6 °F 61.7 °F 30.1 in NE 3.3 mph 9 mph 62% 0 in
21:24 75.6 °F 61.5 °F 30.1 in ENE 4.7 mph 7 mph 62% 0 in
21:29 75.4 °F 61.9 °F 30.1 in NE 4.3 mph 5.8 mph 62.9% 0 in
21:34 75.4 °F 62.2 °F 30.1 in NE 3.1 mph 6 mph 63.6% 0 in
21:39 75.4 °F 62.8 °F 30.1 in North 3 mph 5 mph 64.9% 0 in
21:44 75.4 °F 63.1 °F 30.1 in NNO 2.4 mph 5 mph 66% 0 in
21:49 75.2 °F 63.7 °F 30.1 in NNO 2.3 mph 4.7 mph 67.4% 0 in
21:54 74.8 °F 64 °F 30.1 in NO 2 mph 5 mph 68.8% 0 in
21:59 74.7 °F 64.4 °F 30.1 in NNO 2.2 mph 6.2 mph 70.6% 0 in
22:04 74.1 °F 64.4 °F 30.1 in NNO 2.9 mph 6 mph 71.9% 0 in
22:09 73.9 °F 64.6 °F 30.1 in NO 2.9 mph 5.2 mph 72.8% 0 in
22:14 73.8 °F 64.6 °F 30.1 in NNO 2.9 mph 5.2 mph 73% 0 in
22:19 73.6 °F 64.6 °F 30.1 in NNO 2.9 mph 5.2 mph 73.7% 0 in
22:24 73.2 °F 64.4 °F 30.1 in North 3.1 mph 5 mph 74% 0 in
22:29 73 °F 64.4 °F 30.1 in NE 3 mph 5 mph 74% 0 in
22:34 73 °F 64.6 °F 30.1 in NE 2.9 mph 5 mph 74.9% 0 in
22:39 73 °F 64.6 °F 30.1 in North 2.7 mph 4 mph 75% 0 in
22:44 72.9 °F 64.6 °F 30.1 in NNE 1.8 mph 4.7 mph 75% 0 in
22:49 72.9 °F 64.4 °F 30.1 in NNO 1.9 mph 5 mph 75% 0 in
22:54 72.7 °F 64.4 °F 30.1 in North 2.4 mph 5 mph 75.4% 0 in
22:59 72.7 °F 64.6 °F 30.1 in NNE 2.5 mph 5 mph 76% 0 in
23:04 72.5 °F 64.4 °F 30.1 in NNE 2.9 mph 5 mph 76% 0 in
23:09 72.3 °F 64.2 °F 30.1 in NNE 2.7 mph 5 mph 76% 0 in
23:14 72.3 °F 64.2 °F 30.1 in North 2 mph 4.6 mph 76% 0 in
23:19 72.3 °F 64.2 °F 30.1 in North 2 mph 5 mph 76% 0 in
23:24 72.3 °F 64.2 °F 30.1 in NNO 1.8 mph 3 mph 76% 0 in
23:29 72.3 °F 64.2 °F 30.1 in NNO 1.7 mph 3.5 mph 76% 0 in
23:34 72.3 °F 64.2 °F 30.1 in NO 1.4 mph 4.6 mph 76% 0 in
23:39 72.1 °F 64.2 °F 30.1 in NO 1.6 mph 5 mph 76% 0 in
23:44 72.1 °F 64.4 °F 30.1 in NO 2 mph 4 mph 76.8% 0 in
23:49 72.1 °F 64.4 °F 30.1 in NO 1.6 mph 3.1 mph 77% 0 in
23:54 72 °F 64.4 °F 30.1 in Calm   3.5 mph 77% 0 in
23:59 72 °F 64.4 °F 30.1 in NO 0.3 mph 3 mph 77.1% 0 in
Murcia-Puente Tocinos, España
Compliments of Weather Underground - 3 mb

La estación de MeteoMurcia.com, publica sus datos en los siguientes proyectos:

Weather Underground PWS IMURCIAP2 Meteoclimatic www.awekas.at

W3Counter
Web Analytics